Time;durP1;ratioP1;P1;durP2;ratioP2;P2;SDS_P1;SDS_P2;PMS_P1;PMS_P2;Temp;Humidity;BMP_temperature;BMP_pressure;BME280_temperature;BME280_humidity;BME280_pressure;Samples;Min_cycle;Max_cycle;Signal;HPM_P1;HPM_P2
2023/01/31 00:00:42;;;;;;;25.00;15.88;;;;;;;0.45;63.94;99890.16;1703875;81;21236;-56
2023/01/31 00:03:59;;;;;;;28.98;15.75;;;;;;;0.44;63.96;99895.20;1729895;79;21879;-57
2023/01/31 00:07:11;;;;;;;23.77;14.90;;;;;;;0.46;63.96;99892.38;1707592;79;21563;-57
2023/01/31 00:10:23;;;;;;;24.20;14.68;;;;;;;0.44;63.92;99892.50;1725130;79;21208;-58
2023/01/31 00:13:34;;;;;;;26.07;14.73;;;;;;;0.44;63.88;99889.81;1696381;79;21967;-57
2023/01/31 00:16:51;;;;;;;24.20;14.40;;;;;;;0.46;63.85;99885.64;1650124;80;21255;-57
2023/01/31 00:20:05;;;;;;;;;;;;;;;0.45;63.85;99880.74;1664831;82;21239;-58
2023/01/31 00:23:20;;;;;;;23.52;14.38;;;;;;;0.44;63.77;99885.77;1719915;81;20249;-56
2023/01/31 00:26:37;;;;;;;26.55;15.78;;;;;;;0.41;63.78;99886.02;1695836;79;21255;-57
2023/01/31 00:29:51;;;;;;;24.37;15.78;;;;;;;0.41;63.81;99877.95;1676659;81;21966;-58
2023/01/31 00:33:09;;;;;;;24.55;15.53;;;;;;;0.41;63.79;99875.26;1729867;79;21299;-58
2023/01/31 00:36:32;;;;;;;24.82;15.60;;;;;;;0.38;63.73;99876.82;1709182;79;21859;-58
2023/01/31 00:39:42;;;;;;;26.10;14.87;;;;;;;0.35;63.74;99877.08;1735867;79;21772;-58
2023/01/31 00:42:54;;;;;;;24.27;14.98;;;;;;;0.38;63.80;99876.82;1704872;79;21354;-57
2023/01/31 00:46:10;;;;;;;26.68;15.28;;;;;;;0.40;63.82;99871.34;1732877;79;21917;-57
2023/01/31 00:49:25;;;;;;;27.15;15.43;;;;;;;0.41;63.77;99866.31;1712422;80;21279;-59
2023/01/31 00:52:42;;;;;;;25.48;14.78;;;;;;;0.40;63.75;99869.48;1733568;79;21208;-57
2023/01/31 00:55:53;;;;;;;28.60;15.60;;;;;;;0.41;63.68;99866.31;1712094;79;21219;-58
2023/01/31 00:59:07;;;;;;;24.90;14.78;;;;;;;0.37;63.64;99861.66;1736182;79;21184;-57
2023/01/31 01:02:20;;;;;;;22.80;14.00;;;;;;;0.35;63.62;99860.92;1681147;79;21338;-58
2023/01/31 01:05:30;;;;;;;19.75;12.43;;;;;;;0.31;63.60;99858.13;1686880;82;21449;-58
2023/01/31 01:08:39;;;;;;;22.27;13.78;;;;;;;0.29;63.62;99856.52;1703975;79;21251;-58
2023/01/31 01:11:54;;;;;;;20.23;13.13;;;;;;;0.28;63.63;99858.38;1724048;79;21271;-58
2023/01/31 01:15:02;;;;;;;20.25;12.85;;;;;;;0.28;63.62;99858.86;1719740;79;21180;-58
2023/01/31 01:18:11;;;;;;;22.10;14.00;;;;;;;0.29;63.66;99858.73;1735283;79;21457;-57
2023/01/31 01:21:36;;;;;;;23.47;14.40;;;;;;;0.34;63.70;99844.42;1721299;80;21964;-58
2023/01/31 01:24:43;;;;;;;21.85;12.95;;;;;;;0.37;63.65;99845.52;1737557;79;21263;-58
2023/01/31 01:27:54;;;;;;;23.60;14.35;;;;;;;0.39;63.61;99842.70;1711248;79;21240;-58
2023/01/31 01:31:01;;;;;;;22.35;13.45;;;;;;;0.38;63.55;99839.14;1698547;81;21243;-57
2023/01/31 01:34:15;;;;;;;21.30;12.85;;;;;;;0.36;63.55;99836.22;1718487;79;21291;-57
2023/01/31 01:37:45;;;;;;;21.82;13.28;;;;;;;0.36;63.64;99839.77;1705057;80;21427;-59
2023/01/31 01:40:57;;;;;;;19.87;12.73;;;;;;;0.36;63.57;99837.56;1736759;80;22023;-58
2023/01/31 01:44:07;;;;;;;24.90;14.43;;;;;;;0.30;63.47;99833.55;1714485;80;21346;-58
2023/01/31 01:47:29;;;;;;;21.17;13.22;;;;;;;0.27;63.49;99825.70;1719510;81;21721;-57
2023/01/31 01:50:49;;;;;;;18.87;11.90;;;;;;;0.29;63.53;99826.44;1738652;80;21807;-57
2023/01/31 01:54:05;;;;;;;21.05;12.88;;;;;;;0.27;63.52;99826.22;1725084;81;21207;-59
2023/01/31 01:57:18;;;;;;;19.07;11.50;;;;;;;0.28;63.54;99826.56;1701890;80;21219;-56
2023/01/31 02:00:37;;;;;;;19.02;12.35;;;;;;;0.28;63.48;99822.05;1736954;80;21208;-57
2023/01/31 02:03:52;;;;;;;19.98;11.95;;;;;;;0.24;63.35;99817.87;1735007;79;21369;-57
2023/01/31 02:07:03;;;;;;;21.70;12.55;;;;;;;0.25;63.47;99812.88;1740733;80;21737;-56
2023/01/31 02:10:24;;;;;;;20.20;12.60;;;;;;;0.27;63.49;99816.80;1733552;80;21224;-57
2023/01/31 02:13:39;;;;;;;;;;;;;;;0.28;63.52;99823.39;1741159;80;21760;-57
2023/01/31 02:16:51;;;;;;;22.82;13.18;;;;;;;0.30;63.57;99821.45;1728529;80;20379;-57
2023/01/31 02:20:42;;;;;;;21.12;12.05;;;;;;;0.32;63.58;99819.97;1725795;80;21297;-56
2023/01/31 02:24:20;;;;;;;22.65;13.13;;;;;;;0.32;63.51;99825.36;1725425;80;21965;-57
2023/01/31 02:28:14;;;;;;;23.45;12.78;;;;;;;0.29;63.49;99821.06;1737678;80;21533;-57
2023/01/31 02:32:02;;;;;;;;;;;;;;;0.26;63.51;99821.31;1733668;80;21260;-57
2023/01/31 02:35:58;;;;;;;20.32;12.68;;;;;;;0.25;63.58;99826.34;1672306;82;20230;-57
2023/01/31 02:39:32;;;;;;;20.82;12.23;;;;;;;0.28;63.68;99813.11;1721286;80;21781;-57
2023/01/31 02:43:06;;;;;;;20.72;11.97;;;;;;;0.32;63.74;99810.55;1735489;80;21212;-56
2023/01/31 02:46:22;;;;;;;18.95;12.25;;;;;;;0.36;63.71;99818.24;1731485;80;21980;-58
2023/01/31 02:49:57;;;;;;;21.25;12.13;;;;;;;0.36;63.61;99821.41;1718435;80;21466;-56
2023/01/31 02:53:13;;;;;;;20.30;12.47;;;;;;;0.37;63.57;99815.91;1736343;79;21869;-56
2023/01/31 02:56:35;;;;;;;20.52;11.97;;;;;;;0.39;63.58;99822.02;1735117;80;21176;-57
2023/01/31 02:59:51;;;;;;;19.73;12.35;;;;;;;0.38;63.56;99820.30;1703272;79;21843;-56
2023/01/31 03:03:01;;;;;;;23.25;12.15;;;;;;;0.36;63.53;99814.20;1718879;80;21327;-57
2023/01/31 03:06:32;;;;;;;21.97;12.63;;;;;;;0.34;63.51;99816.16;1709153;82;21355;-56
2023/01/31 03:09:49;;;;;;;22.87;12.37;;;;;;;0.35;63.53;99825.10;1735324;81;21779;-57
2023/01/31 03:13:40;;;;;;;22.13;12.55;;;;;;;0.35;63.51;99834.01;1731945;80;21385;-57
2023/01/31 03:20:32;;;;;;;21.42;11.63;;;;;;;0.27;63.43;99831.08;1718421;81;21208;-57
2023/01/31 03:23:43;;;;;;;17.92;11.45;;;;;;;0.25;63.48;99832.20;1733805;80;21445;-59
2023/01/31 03:26:55;;;;;;;17.27;11.38;;;;;;;0.25;63.43;99833.06;1725924;80;21250;-57
2023/01/31 03:30:18;;;;;;;21.55;12.20;;;;;;;0.26;63.45;99842.84;1735353;81;21305;-57
2023/01/31 03:33:35;;;;;;;20.25;11.60;;;;;;;0.24;63.31;99836.72;1743617;79;21701;-57
2023/01/31 03:37:07;;;;;;;20.97;11.08;;;;;;;0.18;63.25;99842.60;1725098;80;21219;-58
2023/01/31 03:40:32;;;;;;;20.85;11.68;;;;;;;0.10;63.16;99845.05;1736220;80;21263;-57
2023/01/31 03:43:53;;;;;;;19.60;11.93;;;;;;;0.02;63.06;99850.70;1740013;81;21732;-57
2023/01/31 03:47:12;;;;;;;;;;;;;;;-0.03;63.12;99850.56;1744278;79;21919;-58
2023/01/31 03:50:37;;;;;;;20.27;11.83;;;;;;;0.01;63.31;99853.88;1743651;80;20188;-57
2023/01/31 03:53:53;;;;;;;20.90;12.13;;;;;;;0.02;63.39;99858.26;1721202;81;21281;-57
2023/01/31 03:57:14;;;;;;;19.52;11.70;;;;;;;0.03;63.48;99862.17;1743585;79;21247;-57
2023/01/31 04:00:24;;;;;;;20.45;12.58;;;;;;;0.06;63.58;99854.36;1698621;81;22042;-56
2023/01/31 04:03:49;;;;;;;18.95;11.65;;;;;;;0.10;63.59;99857.16;1735390;79;21937;-57
2023/01/31 04:07:05;;;;;;;22.45;12.70;;;;;;;0.13;63.57;99864.98;1748452;81;21219;-56
2023/01/31 04:10:15;;;;;;;22.25;12.70;;;;;;;0.12;63.47;99859.73;1704120;81;21963;-57
2023/01/31 04:13:28;;;;;;;19.65;12.07;;;;;;;0.09;63.39;99856.80;1689029;78;21702;-57
2023/01/31 04:16:39;;;;;;;21.80;12.65;;;;;;;0.09;63.38;99854.11;1693158;80;21756;-58
2023/01/31 04:19:55;;;;;;;21.97;12.43;;;;;;;0.05;63.37;99862.56;1691115;81;21293;-58
2023/01/31 04:23:17;;;;;;;21.55;12.80;;;;;;;0.08;63.40;99865.00;1853854;76;22234;-57
2023/01/31 04:26:47;;;;;;;21.80;13.50;;;;;;;0.03;63.45;99865.85;1772341;81;21198;-57
2023/01/31 04:30:16;;;;;;;22.37;13.78;;;;;;;0.03;63.52;99858.64;1783610;79;21177;-57
2023/01/31 04:33:43;;;;;;;22.22;12.73;;;;;;;0.03;63.52;99866.72;1769949;79;21304;-57
2023/01/31 04:37:01;;;;;;;19.52;12.18;;;;;;;0.02;63.50;99864.98;1784909;79;21239;-58
2023/01/31 04:40:15;;;;;;;25.72;15.03;;;;;;;-0.01;63.55;99862.06;1805571;79;21271;-58
2023/01/31 04:43:32;;;;;;;22.17;14.53;;;;;;;-0.01;63.55;99863.89;1783170;79;21335;-57
2023/01/31 04:46:46;;;;;;;28.20;14.33;;;;;;;-0.04;63.53;99872.20;1772654;79;21232;-58
2023/01/31 04:49:57;;;;;;;25.65;15.05;;;;;;;-0.05;63.62;99889.33;1764959;81;21217;-57
2023/01/31 04:53:14;;;;;;;26.23;15.10;;;;;;;-0.01;63.67;99885.41;1771862;81;21892;-57
2023/01/31 04:56:30;;;;;;;30.20;15.88;;;;;;;0.05;63.65;99894.84;1772153;80;21851;-57
2023/01/31 04:59:45;;;;;;;24.50;15.18;;;;;;;0.08;63.67;99890.56;1729352;81;21738;-57
2023/01/31 05:02:59;;;;;;;41.70;25.48;;;;;;;0.12;63.70;99886.16;1745613;81;21421;-57
2023/01/31 05:06:16;;;;;;;29.35;16.62;;;;;;;0.15;63.72;99896.67;1722932;82;21343;-57
2023/01/31 05:09:33;;;;;;;26.10;15.15;;;;;;;0.17;63.66;99887.99;1761590;81;21386;-57
2023/01/31 05:12:50;;;;;;;28.17;13.40;;;;;;;0.19;63.60;99891.91;1741813;81;21217;-57
2023/01/31 05:15:56;;;;;;;21.82;13.00;;;;;;;0.17;63.50;99884.44;1761164;81;21221;-57
2023/01/31 05:19:11;;;;;;;27.70;15.10;;;;;;;0.18;63.58;99890.17;1745166;81;21280;-57
2023/01/31 05:22:25;;;;;;;29.57;16.10;;;;;;;0.19;63.49;99895.43;1761542;79;21174;-57
2023/01/31 05:25:44;;;;;;;26.90;15.18;;;;;;;0.10;63.33;99886.75;1732804;81;21378;-59
2023/01/31 05:28:53;;;;;;;27.32;15.50;;;;;;;0.00;63.31;99892.52;1762934;81;21288;-59
2023/01/31 05:32:08;;;;;;;24.25;13.93;;;;;;;-0.15;63.12;99896.41;1799802;79;21205;-58
2023/01/31 05:35:26;;;;;;;21.15;12.25;;;;;;;-0.34;63.01;99895.66;1799351;79;21173;-59
2023/01/31 05:38:43;;;;;;;22.37;13.25;;;;;;;-0.46;63.04;99895.75;1799911;79;21200;-59
2023/01/31 05:41:57;;;;;;;26.48;14.55;;;;;;;-0.57;62.99;99902.44;1799884;79;21351;-58
2023/01/31 05:45:17;;;;;;;22.52;13.22;;;;;;;-0.68;63.02;99902.41;1799997;79;21358;-59
2023/01/31 05:48:40;;;;;;;24.12;13.48;;;;;;;-0.76;63.07;99902.13;1770703;79;21921;-59
2023/01/31 05:52:11;;;;;;;22.10;12.28;;;;;;;-0.87;63.03;99896.72;1762064;80;21350;-59
2023/01/31 05:55:28;;;;;;;26.50;14.80;;;;;;;-0.96;63.04;99901.42;1776879;79;21413;-59
2023/01/31 05:58:51;;;;;;;28.35;13.78;;;;;;;-1.03;63.09;99905.55;1719903;82;21493;-60
2023/01/31 06:02:10;;;;;;;26.25;14.38;;;;;;;-1.06;63.18;99911.99;1734922;82;21268;-58
2023/01/31 06:09:37;;;;;;;23.62;13.13;;;;;;;-1.06;63.28;99907.13;1845636;76;22751;-59
2023/01/31 06:12:48;;;;;;;21.23;13.48;;;;;;;-1.13;63.30;99909.89;1770914;79;21849;-58
2023/01/31 06:15:58;;;;;;;23.10;13.40;;;;;;;-1.16;63.29;99904.75;1764494;80;21785;-60
2023/01/31 06:19:24;;;;;;;22.42;13.53;;;;;;;-1.22;63.31;99895.30;1756020;80;21303;-57
2023/01/31 06:23:08;;;;;;;25.68;13.55;;;;;;;-1.21;63.46;99900.20;1738167;82;21204;-57
2023/01/31 06:26:25;;;;;;;25.60;13.10;;;;;;;-1.20;63.51;99902.77;1741088;82;21828;-59
2023/01/31 06:29:36;;;;;;;22.17;13.03;;;;;;;-1.16;63.61;99904.75;1739949;81;21193;-60
2023/01/31 06:33:05;;;;;;;29.10;14.70;;;;;;;-1.11;63.68;99907.44;1743810;81;21555;-60
2023/01/31 06:40:10;;;;;;;24.72;13.68;;;;;;;-1.01;63.87;99917.02;1773110;79;21193;-60
2023/01/31 06:43:50;;;;;;;32.90;16.40;;;;;;;-0.95;63.89;99915.23;1775830;80;21337;-59
2023/01/31 06:47:12;;;;;;;51.98;22.22;;;;;;;-0.91;63.90;99922.08;1772700;80;21426;-59
2023/01/31 06:50:20;;;;;;;37.53;18.02;;;;;;;-0.80;64.06;99921.65;1772150;79;21366;-60
2023/01/31 06:53:31;;;;;;;36.88;17.73;;;;;;;-0.68;64.21;99925.25;1773744;80;21343;-59
2023/01/31 06:56:44;;;;;;;33.48;17.70;;;;;;;-0.56;64.23;99922.95;1773494;80;21200;-59
2023/01/31 06:59:55;;;;;;;29.55;16.85;;;;;;;-0.51;64.17;99919.44;1772497;79;21240;-60
2023/01/31 07:07:00;;;;;;;24.92;13.43;;;;;;;-0.43;64.16;99913.81;1698398;83;21264;-60
2023/01/31 07:10:32;;;;;;;26.87;13.68;;;;;;;-0.37;64.17;99920.56;1684475;84;21476;-59
2023/01/31 07:13:49;;;;;;;26.15;14.23;;;;;;;-0.29;64.14;99912.77;1692813;84;21229;-60
2023/01/31 07:17:19;;;;;;;23.00;13.43;;;;;;;-0.28;63.98;99918.02;1669891;84;21828;-59
2023/01/31 07:20:32;;;;;;;19.97;12.27;;;;;;;-0.28;63.99;99918.02;1689428;84;21430;-59
2023/01/31 07:23:47;;;;;;;20.05;11.20;;;;;;;-0.24;64.09;99924.86;1684286;84;21189;-58
2023/01/31 07:27:03;;;;;;;19.35;11.38;;;;;;;-0.12;64.24;99931.13;1697608;84;22103;-60
2023/01/31 07:30:15;;;;;;;20.65;12.10;;;;;;;-0.01;64.34;99929.80;1660989;84;21260;-59
2023/01/31 07:33:28;;;;;;;22.77;12.85;;;;;;;0.09;64.44;99928.58;1693955;83;21738;-59
2023/01/31 07:36:38;;;;;;;18.40;12.07;;;;;;;0.19;64.35;99927.72;1697953;84;21229;-59
2023/01/31 07:39:50;;;;;;;24.23;14.13;;;;;;;0.22;64.34;99928.85;1673116;84;21264;-58
2023/01/31 07:42:58;;;;;;;21.15;12.47;;;;;;;0.31;64.34;99930.80;1682687;84;21232;-59
2023/01/31 07:46:30;;;;;;;19.12;11.48;;;;;;;0.37;64.33;99934.82;1682453;84;21248;-59
2023/01/31 07:50:06;;;;;;;23.67;11.83;;;;;;;0.45;64.38;99934.58;1696233;84;21352;-59
2023/01/31 07:53:18;;;;;;;23.42;11.40;;;;;;;0.55;64.40;99940.09;1695792;84;21752;-59
2023/01/31 07:56:32;;;;;;;23.50;12.07;;;;;;;0.61;64.43;99940.45;1697156;83;21225;-59
2023/01/31 08:03:34;;;;;;;20.15;12.58;;;;;;;0.68;64.33;99930.88;1671057;85;21281;-59
2023/01/31 08:07:23;;;;;;;16.65;10.82;;;;;;;0.74;64.35;99937.61;1683331;82;21354;-60
2023/01/31 08:10:39;;;;;;;19.32;11.28;;;;;;;0.80;64.36;99934.41;1688816;85;21362;-60
2023/01/31 08:13:55;;;;;;;24.35;13.78;;;;;;;0.86;64.44;99934.77;1676287;85;21764;-60
2023/01/31 08:17:11;;;;;;;26.00;13.53;;;;;;;0.94;64.47;99932.30;1678062;85;21848;-62
2023/01/31 08:20:22;;;;;;;24.25;14.20;;;;;;;1.05;64.54;99932.75;1667610;84;21441;-59
2023/01/31 08:23:37;;;;;;;23.20;13.80;;;;;;;1.16;64.61;99932.72;1703139;84;21556;-60
2023/01/31 08:26:55;;;;;;;24.00;12.90;;;;;;;1.23;64.49;99932.11;1690350;83;21224;-59
2023/01/31 08:30:19;;;;;;;25.77;13.98;;;;;;;1.32;64.50;99938.06;1687533;82;21280;-62
2023/01/31 08:33:31;;;;;;;20.62;11.68;;;;;;;1.41;64.51;99936.45;1685207;84;21410;-59
2023/01/31 08:36:48;;;;;;;22.50;12.45;;;;;;;1.49;64.46;99939.36;1673507;85;21774;-60
2023/01/31 08:40:11;;;;;;;21.33;12.30;;;;;;;1.57;64.46;99942.23;1674244;85;21321;-61
2023/01/31 08:43:34;;;;;;;22.13;12.37;;;;;;;1.71;64.43;99941.08;1671944;84;21210;-58
2023/01/31 08:47:07;;;;;;;25.23;13.05;;;;;;;1.83;64.37;99940.01;1673841;84;21772;-61
2023/01/31 08:50:23;;;;;;;22.62;13.32;;;;;;;1.97;64.29;99937.84;1662464;84;21221;-60
2023/01/31 08:53:34;;;;;;;20.40;12.68;;;;;;;2.16;64.30;99946.05;1672811;85;21363;-60
2023/01/31 08:57:02;;;;;;;21.95;13.15;;;;;;;2.40;64.32;99937.64;1664033;83;21781;-59
2023/01/31 09:00:21;;;;;;;22.55;14.43;;;;;;;2.58;64.26;99938.73;1630161;86;21301;-59
2023/01/31 09:03:44;;;;;;;24.20;13.45;;;;;;;2.70;64.22;99935.79;1673974;84;21233;-60
2023/01/31 09:11:23;;;;;;;22.25;13.03;;;;;;;2.84;64.19;99928.64;1648763;85;21244;-60
2023/01/31 09:14:39;;;;;;;25.25;14.80;;;;;;;3.09;64.04;99925.42;1636862;85;21764;-62
2023/01/31 09:17:49;;;;;;;28.57;15.80;;;;;;;3.20;64.00;99919.54;1656292;85;21377;-60
2023/01/31 09:21:28;;;;;;;23.47;12.63;;;;;;;3.28;63.97;99920.55;1648675;87;21349;-60
2023/01/31 09:24:44;;;;;;;20.15;12.18;;;;;;;3.39;63.78;99924.97;1598594;88;21252;-60
2023/01/31 09:28:14;;;;;;;22.70;13.40;;;;;;;3.40;63.67;99919.41;1616805;88;21351;-59
2023/01/31 09:31:28;;;;;;;22.77;14.05;;;;;;;3.50;63.74;99909.94;1678336;83;21224;-61
2023/01/31 09:34:56;;;;;;;22.50;12.95;;;;;;;3.61;63.73;99912.50;1644887;84;21211;-59
2023/01/31 09:38:12;;;;;;;31.52;18.92;;;;;;;3.74;63.61;99912.55;1710104;81;21262;-61
2023/01/31 09:42:04;;;;;;;24.07;13.72;;;;;;;3.76;63.47;99919.20;1691631;82;21233;-59
2023/01/31 09:46:08;;;;;;;20.10;12.93;;;;;;;3.77;63.42;99920.41;1690194;82;22122;-61
2023/01/31 09:50:08;;;;;;;22.17;13.60;;;;;;;3.85;63.47;99921.03;1698070;83;21417;-61
2023/01/31 09:53:58;;;;;;;36.03;21.48;;;;;;;3.86;63.31;99920.88;1689711;83;21293;-63
2023/01/31 09:57:22;;;;;;;27.70;15.85;;;;;;;3.89;63.28;99922.44;1673348;84;21371;-62
2023/01/31 10:01:01;;;;;;;26.20;15.80;;;;;;;3.89;63.17;99916.53;1701363;83;21603;-60
2023/01/31 10:04:43;;;;;;;29.92;16.05;;;;;;;3.91;63.12;99909.13;1701291;82;21277;-60
2023/01/31 10:08:46;;;;;;;25.48;16.00;;;;;;;3.94;63.22;99908.83;1673203;85;21308;-63
2023/01/31 10:12:07;;;;;;;21.75;12.93;;;;;;;3.97;63.19;99912.59;1675516;85;21273;-62
2023/01/31 10:15:31;;;;;;;24.05;14.23;;;;;;;4.07;63.27;99901.74;1674097;84;21289;-61
2023/01/31 10:18:55;;;;;;;24.98;15.38;;;;;;;4.18;63.30;99904.28;1654006;85;21251;-62
2023/01/31 10:22:09;;;;;;;23.18;14.28;;;;;;;4.22;63.17;99909.25;1687120;84;21229;-61
2023/01/31 10:25:47;;;;;;;31.23;18.95;;;;;;;4.20;63.07;99913.95;1675350;84;21773;-61
2023/01/31 10:29:09;;;;;;;27.90;17.62;;;;;;;4.12;63.01;99909.77;1676953;82;21348;-61
2023/01/31 10:32:34;;;;;;;29.23;17.12;;;;;;;4.02;62.97;99917.08;1676582;84;21733;-62
2023/01/31 10:35:50;;;;;;;36.93;17.90;;;;;;;3.95;62.96;99909.66;1680656;84;21894;-61
2023/01/31 10:39:20;;;;;;;41.58;19.52;;;;;;;3.89;62.99;99912.95;1693113;83;21369;-60
2023/01/31 10:42:41;;;;;;;33.13;17.57;;;;;;;3.84;63.03;99910.69;1693324;84;21436;-62
2023/01/31 10:45:50;;;;;;;46.88;23.73;;;;;;;3.74;62.92;99907.13;1692886;83;21251;-59
2023/01/31 10:49:02;;;;;;;42.55;23.50;;;;;;;3.62;62.90;99909.65;1657899;83;21345;-58
2023/01/31 10:52:27;;;;;;;31.17;18.90;;;;;;;3.57;63.01;99905.68;1692631;84;21413;-59
2023/01/31 10:55:39;;;;;;;27.25;16.15;;;;;;;3.59;63.12;99899.11;1685322;83;21208;-60
2023/01/31 10:58:50;;;;;;;26.25;15.60;;;;;;;3.57;63.12;99901.10;1719934;82;21756;-65
2023/01/31 11:02:04;;;;;;;27.25;17.15;;;;;;;3.56;63.09;99903.47;1720585;83;21287;-64
2023/01/31 11:09:30;;;;;;;25.32;14.75;;;;;;;3.71;63.19;99903.88;1866341;76;22273;-66
2023/01/31 11:12:52;;;;;;;25.32;15.75;;;;;;;3.65;63.15;99903.95;1801430;79;21264;-64
2023/01/31 11:16:08;;;;;;;28.52;16.93;;;;;;;3.62;63.12;99900.18;1761033;79;21772;-64
2023/01/31 11:19:35;;;;;;;27.90;16.55;;;;;;;3.58;62.99;99904.19;1769011;79;21377;-63
2023/01/31 11:22:49;;;;;;;24.92;16.12;;;;;;;3.50;63.00;99897.28;1781293;79;21268;-63
2023/01/31 11:26:47;;;;;;;32.00;17.35;;;;;;;3.44;62.98;99901.88;1790147;79;21200;-63
2023/01/31 11:30:02;;;;;;;;;;;;;;;3.40;63.00;99900.96;1802260;79;21335;-64
2023/01/31 11:33:12;;;;;;;31.48;17.40;;;;;;;3.38;63.01;99895.70;1804843;79;20213;-63
2023/01/31 11:36:32;;;;;;;27.10;16.67;;;;;;;3.42;63.09;99899.84;1804165;79;21941;-63
2023/01/31 11:39:49;;;;;;;25.12;15.45;;;;;;;3.51;63.17;99892.70;1803127;79;21185;-62
2023/01/31 11:43:09;;;;;;;29.40;17.17;;;;;;;3.62;63.20;99893.41;1803022;79;21263;-62
2023/01/31 11:46:27;;;;;;;31.37;17.73;;;;;;;3.73;63.10;99893.26;1858115;76;22768;-62
2023/01/31 11:49:43;;;;;;;27.05;16.97;;;;;;;3.73;63.16;99890.55;1795136;79;21355;-62
2023/01/31 11:52:55;;;;;;;36.68;22.10;;;;;;;3.78;63.06;99895.52;1745759;80;21213;-61
2023/01/31 11:59:50;;;;;;;45.95;27.70;;;;;;;3.73;62.94;99900.51;1769741;78;21236;-63
2023/01/31 12:03:12;;;;;;;37.73;21.30;;;;;;;3.67;62.86;99900.61;1770123;80;21563;-61
2023/01/31 12:06:43;;;;;;;30.62;19.98;;;;;;;3.64;62.90;99892.78;1725644;82;21864;-61
2023/01/31 12:10:08;;;;;;;31.07;17.73;;;;;;;3.63;62.96;99890.22;1739691;82;21364;-62
2023/01/31 12:13:35;;;;;;;30.90;17.75;;;;;;;3.62;62.97;99893.91;1739865;82;21948;-61
2023/01/31 12:16:46;;;;;;;41.15;29.87;;;;;;;3.65;63.00;99904.44;1739471;82;21415;-61
2023/01/31 12:20:24;;;;;;;40.90;22.93;;;;;;;3.69;63.00;99899.97;1739178;82;22003;-61
2023/01/31 12:24:23;;;;;;;30.35;17.70;;;;;;;3.72;63.00;99901.03;1739345;82;22043;-61
2023/01/31 12:28:27;;;;;;;37.00;20.10;;;;;;;3.79;63.01;99899.96;1737591;82;21233;-62
2023/01/31 12:31:58;;;;;;;31.62;16.95;;;;;;;3.82;62.91;99907.27;1738530;82;21367;-60
2023/01/31 12:35:36;;;;;;;28.30;17.12;;;;;;;3.79;62.80;99914.33;1687097;83;21215;-60
2023/01/31 12:39:06;;;;;;;46.10;23.40;;;;;;;3.77;62.89;99918.19;1714458;83;21923;-62
2023/01/31 12:42:45;;;;;;;31.25;17.25;;;;;;;3.76;62.88;99920.55;1728603;82;21297;-60
2023/01/31 12:46:02;;;;;;;31.40;18.23;;;;;;;3.71;62.81;99923.66;1723402;82;21232;-60
2023/01/31 12:49:59;;;;;;;31.45;18.35;;;;;;;3.67;62.83;99916.84;1738233;81;21231;-61
2023/01/31 12:53:37;;;;;;;37.25;18.98;;;;;;;3.65;62.80;99913.42;1727685;81;21376;-62
2023/01/31 12:57:17;;;;;;;35.85;20.95;;;;;;;3.66;62.77;99920.56;1690272;81;21603;-60
2023/01/31 13:00:41;;;;;;;34.38;20.32;;;;;;;3.67;62.83;99925.45;1720367;81;21748;-60
2023/01/31 13:04:36;;;;;;;33.75;19.95;;;;;;;3.65;62.82;99930.14;1721637;81;21299;-60
2023/01/31 13:08:16;;;;;;;39.98;25.88;;;;;;;3.68;62.88;99924.48;1695410;82;21564;-60
2023/01/31 13:12:02;;;;;;;32.93;19.98;;;;;;;3.69;62.90;99924.33;1733452;81;21244;-61
2023/01/31 13:15:35;;;;;;;29.10;16.87;;;;;;;3.69;62.85;99913.50;1706494;83;21245;-62
2023/01/31 13:18:52;;;;;;;33.15;19.48;;;;;;;3.63;62.80;99918.63;1694849;83;21781;-60
2023/01/31 13:22:09;;;;;;;28.85;17.37;;;;;;;3.58;62.78;99915.49;1654021;85;21777;-59
2023/01/31 13:25:47;;;;;;;27.67;16.23;;;;;;;3.51;62.74;99921.97;1688563;83;21871;-60
2023/01/31 13:29:16;;;;;;;26.60;17.90;;;;;;;3.45;62.67;99917.14;1696028;83;21303;-60
2023/01/31 13:33:07;;;;;;;31.57;18.00;;;;;;;3.41;62.72;99914.86;1707503;83;21256;-59
2023/01/31 13:36:33;;;;;;;27.65;17.17;;;;;;;3.38;62.68;99914.63;1725198;82;21226;-60
2023/01/31 13:39:52;;;;;;;29.82;17.92;;;;;;;3.33;62.66;99918.25;1717152;83;21243;-62
2023/01/31 13:43:10;;;;;;;29.75;18.05;;;;;;;3.30;62.62;99919.89;1730294;83;21225;-61
2023/01/31 13:46:44;;;;;;;28.47;17.80;;;;;;;3.30;62.67;99922.59;1696526;83;21245;-64
2023/01/31 13:50:38;;;;;;;32.20;18.52;;;;;;;3.29;62.72;99922.25;1723421;82;21407;-60
2023/01/31 13:54:12;;;;;;;31.35;18.05;;;;;;;3.28;62.75;99925.97;1726005;82;21781;-63
2023/01/31 13:57:44;;;;;;;37.60;22.00;;;;;;;3.26;62.75;99931.14;1694198;84;21270;-60
2023/01/31 14:01:12;;;;;;;35.43;20.92;;;;;;;3.24;62.79;99928.58;1702949;83;21851;-60
2023/01/31 14:04:29;;;;;;;33.00;18.10;;;;;;;3.23;62.76;99928.23;1646948;85;21666;-60
2023/01/31 14:07:40;;;;;;;29.30;18.23;;;;;;;3.21;62.71;99931.56;1672637;85;21874;-60
2023/01/31 14:10:54;;;;;;;29.23;18.00;;;;;;;3.19;62.72;99928.66;1673376;85;21245;-61
2023/01/31 14:14:40;;;;;;;29.85;17.67;;;;;;;3.20;62.76;99927.16;1647011;79;21228;-61
2023/01/31 14:18:03;;;;;;;31.42;18.32;;;;;;;3.20;62.76;99935.28;1788193;79;21241;-60
2023/01/31 14:21:41;;;;;;;31.30;19.50;;;;;;;3.20;62.72;99939.33;1720040;83;21605;-62
2023/01/31 14:25:11;;;;;;;35.15;19.60;;;;;;;3.16;62.68;99936.53;1735692;80;21265;-61
2023/01/31 14:28:50;;;;;;;32.88;18.60;;;;;;;3.13;62.62;99942.71;1733431;81;21473;-62
2023/01/31 14:32:38;;;;;;;32.93;19.02;;;;;;;3.09;62.64;99949.75;1755852;80;21283;-60
2023/01/31 14:36:47;;;;;;;32.25;18.82;;;;;;;3.06;62.68;99954.09;1719666;81;21283;-58
2023/01/31 14:40:27;;;;;;;30.60;18.60;;;;;;;3.02;62.73;99949.97;1724619;78;21208;-57
2023/01/31 14:44:16;;;;;;;33.92;18.42;;;;;;;3.00;62.74;99961.89;1718273;83;21505;-58
2023/01/31 14:48:02;;;;;;;30.20;17.87;;;;;;;2.97;62.75;99963.04;1691105;83;21216;-58
2023/01/31 14:52:11;;;;;;;41.05;23.30;;;;;;;2.94;62.78;99965.16;1660363;86;21291;-57
2023/01/31 14:56:12;;;;;;;32.63;19.60;;;;;;;3.00;62.90;99962.77;1844046;76;22271;-57
2023/01/31 14:59:47;;;;;;;38.65;22.52;;;;;;;2.96;62.96;99961.83;1692572;82;21226;-56
2023/01/31 15:06:57;;;;;;;;;;;;;;;2.97;62.99;99967.09;1674666;82;21240;-56
2023/01/31 15:11:11;;;;;;;42.25;20.82;;;;;;;2.99;62.99;99966.95;1699130;82;20237;-58
2023/01/31 15:14:46;;;;;;;35.05;19.45;;;;;;;2.95;63.02;99966.38;1692867;83;21258;-58
2023/01/31 15:18:00;;;;;;;39.73;22.65;;;;;;;2.95;63.03;99970.91;1661387;84;21224;-58
2023/01/31 15:21:11;;;;;;;56.68;27.40;;;;;;;2.95;63.08;99966.86;1617482;87;21256;-58
2023/01/31 15:24:26;;;;;;;41.33;22.87;;;;;;;2.95;63.10;99962.31;1581197;89;21725;-58
2023/01/31 15:27:39;;;;;;;40.23;23.45;;;;;;;2.96;63.10;99974.86;1644315;85;21302;-58
2023/01/31 15:30:52;;;;;;;39.65;22.05;;;;;;;2.98;63.11;99980.13;1629642;85;21267;-58
2023/01/31 15:34:06;;;;;;;43.10;24.18;;;;;;;2.99;63.12;99981.83;1655288;83;21294;-57
2023/01/31 15:37:28;;;;;;;45.90;26.35;;;;;;;2.99;63.12;99981.83;1676252;85;21595;-58
2023/01/31 15:40:37;;;;;;;44.98;24.50;;;;;;;2.98;63.06;99978.78;1658517;85;21223;-58
2023/01/31 15:43:44;;;;;;;44.35;23.42;;;;;;;2.95;63.03;99982.59;1668834;84;21208;-58
2023/01/31 15:46:55;;;;;;;38.95;22.67;;;;;;;2.93;63.05;99978.33;1651303;85;21350;-58
2023/01/31 15:50:02;;;;;;;39.95;22.10;;;;;;;2.90;62.99;99978.61;1652554;86;21312;-58
2023/01/31 15:53:22;;;;;;;37.65;20.37;;;;;;;2.89;63.06;99983.63;1662473;85;21275;-57
2023/01/31 15:56:34;;;;;;;38.33;22.65;;;;;;;2.89;63.09;99982.28;1651877;85;21298;-57
2023/01/31 15:59:41;;;;;;;37.45;22.13;;;;;;;2.88;63.13;99989.55;1663738;84;21270;-57
2023/01/31 16:02:59;;;;;;;38.15;22.25;;;;;;;2.87;63.14;99980.23;1670504;85;21239;-57
2023/01/31 16:06:04;;;;;;;36.13;21.17;;;;;;;2.86;63.17;99986.61;1670253;83;21217;-58
2023/01/31 16:09:15;;;;;;;41.05;21.37;;;;;;;2.85;63.23;99992.50;1660600;86;21304;-58
2023/01/31 16:12:27;;;;;;;;;;;;;;;2.86;63.31;100000.99;1636397;85;21275;-58
2023/01/31 16:15:41;;;;;;;48.17;26.02;;;;;;;2.88;63.34;100000.85;1670180;84;20597;-57
2023/01/31 16:19:00;;;;;;;58.85;30.97;;;;;;;2.86;63.41;99999.64;1638097;85;21299;-57